sensor_id;sensor_type;location;lat;lon;timestamp;P1;durP1;ratioP1;P2;durP2;ratioP2
18997;SDS011;9632;51.018;4.284;2023-04-06T00:01:37;24.85;;;10.98;;
18997;SDS011;9632;51.018;4.284;2023-04-06T00:04:03;21.98;;;9.82;;
18997;SDS011;9632;51.018;4.284;2023-04-06T00:06:28;20.02;;;9.90;;
18997;SDS011;9632;51.018;4.284;2023-04-06T00:08:55;24.80;;;10.52;;
18997;SDS011;9632;51.018;4.284;2023-04-06T00:11:21;22.38;;;10.27;;
18997;SDS011;9632;51.018;4.284;2023-04-06T00:13:47;23.27;;;10.65;;
18997;SDS011;9632;51.018;4.284;2023-04-06T00:16:13;19.48;;;9.88;;
18997;SDS011;9632;51.018;4.284;2023-04-06T00:18:39;21.33;;;9.98;;
18997;SDS011;9632;51.018;4.284;2023-04-06T00:21:05;21.50;;;10.13;;
18997;SDS011;9632;51.018;4.284;2023-04-06T00:23:31;21.75;;;10.18;;
18997;SDS011;9632;51.018;4.284;2023-04-06T00:25:56;20.85;;;9.90;;
18997;SDS011;9632;51.018;4.284;2023-04-06T00:28:22;19.80;;;9.70;;
18997;SDS011;9632;51.018;4.284;2023-04-06T00:30:51;20.02;;;9.02;;
18997;SDS011;9632;51.018;4.284;2023-04-06T00:33:18;20.35;;;9.05;;
18997;SDS011;9632;51.018;4.284;2023-04-06T00:35:44;20.13;;;9.07;;
18997;SDS011;9632;51.018;4.284;2023-04-06T00:38:11;18.23;;;9.05;;
18997;SDS011;9632;51.018;4.284;2023-04-06T00:40:37;18.92;;;9.45;;
18997;SDS011;9632;51.018;4.284;2023-04-06T00:43:04;22.45;;;9.77;;
18997;SDS011;9632;51.018;4.284;2023-04-06T00:45:35;17.80;;;8.68;;
18997;SDS011;9632;51.018;4.284;2023-04-06T00:48:02;22.23;;;9.73;;
18997;SDS011;9632;51.018;4.284;2023-04-06T00:50:28;17.58;;;9.07;;
18997;SDS011;9632;51.018;4.284;2023-04-06T00:52:54;19.08;;;9.63;;
18997;SDS011;9632;51.018;4.284;2023-04-06T00:55:20;19.67;;;9.00;;
18997;SDS011;9632;51.018;4.284;2023-04-06T00:57:46;21.00;;;9.32;;
18997;SDS011;9632;51.018;4.284;2023-04-06T01:00:12;21.02;;;9.70;;
18997;SDS011;9632;51.018;4.284;2023-04-06T01:02:38;20.52;;;9.32;;
18997;SDS011;9632;51.018;4.284;2023-04-06T01:05:04;20.05;;;9.80;;
18997;SDS011;9632;51.018;4.284;2023-04-06T01:07:31;21.08;;;9.80;;
18997;SDS011;9632;51.018;4.284;2023-04-06T01:09:56;20.42;;;9.55;;
18997;SDS011;9632;51.018;4.284;2023-04-06T01:12:22;19.83;;;9.52;;
18997;SDS011;9632;51.018;4.284;2023-04-06T01:14:48;20.50;;;10.15;;
18997;SDS011;9632;51.018;4.284;2023-04-06T01:17:13;21.15;;;9.25;;
18997;SDS011;9632;51.018;4.284;2023-04-06T01:19:39;20.50;;;9.88;;
18997;SDS011;9632;51.018;4.284;2023-04-06T01:22:13;21.88;;;9.57;;
18997;SDS011;9632;51.018;4.284;2023-04-06T01:24:40;20.38;;;9.05;;
18997;SDS011;9632;51.018;4.284;2023-04-06T01:27:05;21.38;;;9.85;;
18997;SDS011;9632;51.018;4.284;2023-04-06T01:29:31;20.80;;;9.60;;
18997;SDS011;9632;51.018;4.284;2023-04-06T01:31:57;19.70;;;10.27;;
18997;SDS011;9632;51.018;4.284;2023-04-06T01:37:07;19.02;;;10.00;;
18997;SDS011;9632;51.018;4.284;2023-04-06T01:39:32;19.42;;;10.20;;
18997;SDS011;9632;51.018;4.284;2023-04-06T01:41:58;23.00;;;9.88;;
18997;SDS011;9632;51.018;4.284;2023-04-06T01:44:24;20.70;;;9.43;;
18997;SDS011;9632;51.018;4.284;2023-04-06T01:46:50;22.35;;;10.02;;
18997;SDS011;9632;51.018;4.284;2023-04-06T01:49:15;19.83;;;9.13;;
18997;SDS011;9632;51.018;4.284;2023-04-06T01:51:41;18.85;;;8.98;;
18997;SDS011;9632;51.018;4.284;2023-04-06T01:54:06;22.85;;;9.90;;
18997;SDS011;9632;51.018;4.284;2023-04-06T01:56:32;18.55;;;9.13;;
18997;SDS011;9632;51.018;4.284;2023-04-06T01:58:58;19.98;;;10.00;;
18997;SDS011;9632;51.018;4.284;2023-04-06T02:01:23;20.05;;;8.88;;
18997;SDS011;9632;51.018;4.284;2023-04-06T02:03:49;19.65;;;9.00;;
18997;SDS011;9632;51.018;4.284;2023-04-06T02:06:15;20.92;;;9.57;;
18997;SDS011;9632;51.018;4.284;2023-04-06T02:08:40;18.80;;;10.18;;
18997;SDS011;9632;51.018;4.284;2023-04-06T02:11:06;21.40;;;10.10;;
18997;SDS011;9632;51.018;4.284;2023-04-06T02:13:32;18.98;;;9.50;;
18997;SDS011;9632;51.018;4.284;2023-04-06T02:15:57;19.90;;;8.93;;
18997;SDS011;9632;51.018;4.284;2023-04-06T02:18:23;20.52;;;10.00;;
18997;SDS011;9632;51.018;4.284;2023-04-06T02:20:49;20.27;;;10.18;;
18997;SDS011;9632;51.018;4.284;2023-04-06T02:23:15;19.02;;;9.55;;
18997;SDS011;9632;51.018;4.284;2023-04-06T02:25:40;20.50;;;9.50;;
18997;SDS011;9632;51.018;4.284;2023-04-06T02:28:06;23.05;;;10.75;;
18997;SDS011;9632;51.018;4.284;2023-04-06T02:30:32;20.33;;;9.82;;
18997;SDS011;9632;51.018;4.284;2023-04-06T02:33:01;22.15;;;9.80;;
18997;SDS011;9632;51.018;4.284;2023-04-06T02:35:28;18.17;;;9.43;;
18997;SDS011;9632;51.018;4.284;2023-04-06T02:37:55;20.45;;;10.25;;
18997;SDS011;9632;51.018;4.284;2023-04-06T02:40:20;18.08;;;8.90;;
18997;SDS011;9632;51.018;4.284;2023-04-06T02:42:46;21.15;;;9.82;;
18997;SDS011;9632;51.018;4.284;2023-04-06T02:45:11;19.60;;;9.50;;
18997;SDS011;9632;51.018;4.284;2023-04-06T02:47:37;21.45;;;10.70;;
18997;SDS011;9632;51.018;4.284;2023-04-06T02:50:03;19.67;;;9.82;;
18997;SDS011;9632;51.018;4.284;2023-04-06T02:52:30;22.60;;;9.90;;
18997;SDS011;9632;51.018;4.284;2023-04-06T02:54:55;21.17;;;10.32;;
18997;SDS011;9632;51.018;4.284;2023-04-06T02:57:21;20.73;;;10.07;;
18997;SDS011;9632;51.018;4.284;2023-04-06T02:59:46;19.13;;;9.40;;
18997;SDS011;9632;51.018;4.284;2023-04-06T03:02:12;20.42;;;10.05;;
18997;SDS011;9632;51.018;4.284;2023-04-06T03:04:38;18.83;;;9.82;;
18997;SDS011;9632;51.018;4.284;2023-04-06T03:07:03;18.23;;;9.20;;
18997;SDS011;9632;51.018;4.284;2023-04-06T03:09:29;19.63;;;9.85;;
18997;SDS011;9632;51.018;4.284;2023-04-06T03:11:55;18.48;;;9.48;;
18997;SDS011;9632;51.018;4.284;2023-04-06T03:14:20;19.60;;;9.95;;
18997;SDS011;9632;51.018;4.284;2023-04-06T03:16:47;21.05;;;9.57;;
18997;SDS011;9632;51.018;4.284;2023-04-06T03:19:13;19.85;;;9.48;;
18997;SDS011;9632;51.018;4.284;2023-04-06T03:21:40;17.60;;;9.15;;
18997;SDS011;9632;51.018;4.284;2023-04-06T03:24:06;17.20;;;9.77;;
18997;SDS011;9632;51.018;4.284;2023-04-06T03:26:32;18.10;;;9.27;;
18997;SDS011;9632;51.018;4.284;2023-04-06T03:28:58;20.10;;;10.23;;
18997;SDS011;9632;51.018;4.284;2023-04-06T03:31:23;20.33;;;10.15;;
18997;SDS011;9632;51.018;4.284;2023-04-06T03:33:49;18.00;;;9.73;;
18997;SDS011;9632;51.018;4.284;2023-04-06T03:36:15;18.58;;;9.75;;
18997;SDS011;9632;51.018;4.284;2023-04-06T03:38:41;18.27;;;9.98;;
18997;SDS011;9632;51.018;4.284;2023-04-06T03:41:06;20.60;;;10.10;;
18997;SDS011;9632;51.018;4.284;2023-04-06T03:43:32;20.23;;;10.68;;
18997;SDS011;9632;51.018;4.284;2023-04-06T03:45:57;19.25;;;10.05;;
18997;SDS011;9632;51.018;4.284;2023-04-06T03:48:23;20.17;;;9.95;;
18997;SDS011;9632;51.018;4.284;2023-04-06T03:50:49;21.13;;;9.77;;
18997;SDS011;9632;51.018;4.284;2023-04-06T03:53:15;19.52;;;9.93;;
18997;SDS011;9632;51.018;4.284;2023-04-06T03:55:40;19.45;;;10.52;;
18997;SDS011;9632;51.018;4.284;2023-04-06T03:58:06;20.70;;;10.20;;
18997;SDS011;9632;51.018;4.284;2023-04-06T04:00:32;19.17;;;9.55;;
18997;SDS011;9632;51.018;4.284;2023-04-06T04:02:58;17.52;;;9.70;;
18997;SDS011;9632;51.018;4.284;2023-04-06T04:05:23;24.88;;;10.55;;
18997;SDS011;9632;51.018;4.284;2023-04-06T04:07:50;22.20;;;10.13;;
18997;SDS011;9632;51.018;4.284;2023-04-06T04:10:17;19.00;;;10.13;;
18997;SDS011;9632;51.018;4.284;2023-04-06T04:12:42;20.65;;;10.35;;
18997;SDS011;9632;51.018;4.284;2023-04-06T04:15:08;22.30;;;11.13;;
18997;SDS011;9632;51.018;4.284;2023-04-06T04:17:34;20.25;;;10.18;;
18997;SDS011;9632;51.018;4.284;2023-04-06T04:20:00;22.27;;;11.23;;
18997;SDS011;9632;51.018;4.284;2023-04-06T04:22:26;19.15;;;10.40;;
18997;SDS011;9632;51.018;4.284;2023-04-06T04:24:52;20.70;;;10.30;;
18997;SDS011;9632;51.018;4.284;2023-04-06T04:27:18;20.17;;;10.95;;
18997;SDS011;9632;51.018;4.284;2023-04-06T04:29:44;21.15;;;11.63;;
18997;SDS011;9632;51.018;4.284;2023-04-06T04:32:10;22.52;;;11.32;;
18997;SDS011;9632;51.018;4.284;2023-04-06T04:34:36;22.63;;;11.15;;
18997;SDS011;9632;51.018;4.284;2023-04-06T04:37:05;21.60;;;11.48;;
18997;SDS011;9632;51.018;4.284;2023-04-06T04:39:31;26.17;;;12.48;;
18997;SDS011;9632;51.018;4.284;2023-04-06T04:41:56;23.40;;;12.07;;
18997;SDS011;9632;51.018;4.284;2023-04-06T04:44:22;21.20;;;11.52;;
18997;SDS011;9632;51.018;4.284;2023-04-06T04:46:48;21.98;;;12.20;;
18997;SDS011;9632;51.018;4.284;2023-04-06T04:49:13;24.38;;;12.32;;
18997;SDS011;9632;51.018;4.284;2023-04-06T04:51:39;25.13;;;12.55;;
18997;SDS011;9632;51.018;4.284;2023-04-06T04:54:05;23.17;;;12.80;;
18997;SDS011;9632;51.018;4.284;2023-04-06T04:56:31;22.55;;;12.13;;
18997;SDS011;9632;51.018;4.284;2023-04-06T04:58:56;24.52;;;12.23;;
18997;SDS011;9632;51.018;4.284;2023-04-06T05:01:22;22.05;;;12.52;;
18997;SDS011;9632;51.018;4.284;2023-04-06T05:03:48;22.55;;;12.80;;
18997;SDS011;9632;51.018;4.284;2023-04-06T05:06:13;25.05;;;13.40;;
18997;SDS011;9632;51.018;4.284;2023-04-06T05:08:40;24.65;;;12.48;;
18997;SDS011;9632;51.018;4.284;2023-04-06T05:11:06;23.23;;;13.18;;
18997;SDS011;9632;51.018;4.284;2023-04-06T05:13:31;24.60;;;12.98;;
18997;SDS011;9632;51.018;4.284;2023-04-06T05:15:57;24.52;;;13.55;;
18997;SDS011;9632;51.018;4.284;2023-04-06T05:18:23;23.38;;;13.07;;
18997;SDS011;9632;51.018;4.284;2023-04-06T05:20:49;26.20;;;13.35;;
18997;SDS011;9632;51.018;4.284;2023-04-06T05:23:16;25.00;;;13.65;;
18997;SDS011;9632;51.018;4.284;2023-04-06T05:25:42;25.67;;;13.43;;
18997;SDS011;9632;51.018;4.284;2023-04-06T05:28:08;27.75;;;14.43;;
18997;SDS011;9632;51.018;4.284;2023-04-06T05:30:33;29.30;;;14.93;;
18997;SDS011;9632;51.018;4.284;2023-04-06T05:33:00;30.90;;;13.80;;
18997;SDS011;9632;51.018;4.284;2023-04-06T05:35:26;39.67;;;16.33;;
18997;SDS011;9632;51.018;4.284;2023-04-06T05:37:52;32.88;;;15.35;;
18997;SDS011;9632;51.018;4.284;2023-04-06T05:40:17;28.02;;;14.27;;
18997;SDS011;9632;51.018;4.284;2023-04-06T05:42:43;30.00;;;14.57;;
18997;SDS011;9632;51.018;4.284;2023-04-06T05:45:09;26.92;;;13.98;;
18997;SDS011;9632;51.018;4.284;2023-04-06T05:47:36;26.15;;;14.23;;
18997;SDS011;9632;51.018;4.284;2023-04-06T05:50:02;32.60;;;15.85;;
18997;SDS011;9632;51.018;4.284;2023-04-06T05:52:28;29.50;;;15.52;;
18997;SDS011;9632;51.018;4.284;2023-04-06T05:54:54;28.83;;;15.75;;
18997;SDS011;9632;51.018;4.284;2023-04-06T05:57:19;30.90;;;15.98;;
18997;SDS011;9632;51.018;4.284;2023-04-06T05:59:45;28.80;;;15.40;;
18997;SDS011;9632;51.018;4.284;2023-04-06T06:02:10;32.30;;;16.50;;
18997;SDS011;9632;51.018;4.284;2023-04-06T06:04:36;32.20;;;15.25;;
18997;SDS011;9632;51.018;4.284;2023-04-06T06:07:02;31.33;;;16.42;;
18997;SDS011;9632;51.018;4.284;2023-04-06T06:09:28;42.92;;;18.15;;
18997;SDS011;9632;51.018;4.284;2023-04-06T06:11:54;32.63;;;16.48;;
18997;SDS011;9632;51.018;4.284;2023-04-06T06:14:19;32.92;;;16.73;;
18997;SDS011;9632;51.018;4.284;2023-04-06T06:16:46;30.05;;;16.10;;
18997;SDS011;9632;51.018;4.284;2023-04-06T06:19:12;40.45;;;17.88;;
18997;SDS011;9632;51.018;4.284;2023-04-06T06:21:38;27.83;;;15.48;;
18997;SDS011;9632;51.018;4.284;2023-04-06T06:24:03;32.75;;;17.17;;
18997;SDS011;9632;51.018;4.284;2023-04-06T06:26:30;31.95;;;15.90;;
18997;SDS011;9632;51.018;4.284;2023-04-06T06:28:56;32.38;;;16.17;;
18997;SDS011;9632;51.018;4.284;2023-04-06T06:34:01;32.50;;;16.88;;
18997;SDS011;9632;51.018;4.284;2023-04-06T06:36:28;32.85;;;17.60;;
18997;SDS011;9632;51.018;4.284;2023-04-06T06:39:02;30.00;;;16.02;;
18997;SDS011;9632;51.018;4.284;2023-04-06T06:41:31;30.20;;;15.52;;
18997;SDS011;9632;51.018;4.284;2023-04-06T06:43:56;33.25;;;17.30;;
18997;SDS011;9632;51.018;4.284;2023-04-06T06:46:22;29.92;;;16.08;;
18997;SDS011;9632;51.018;4.284;2023-04-06T06:48:48;33.85;;;16.38;;
18997;SDS011;9632;51.018;4.284;2023-04-06T06:51:14;36.13;;;17.42;;
18997;SDS011;9632;51.018;4.284;2023-04-06T06:53:39;31.25;;;15.70;;
18997;SDS011;9632;51.018;4.284;2023-04-06T06:56:05;33.85;;;16.10;;
18997;SDS011;9632;51.018;4.284;2023-04-06T06:58:31;32.30;;;16.58;;
18997;SDS011;9632;51.018;4.284;2023-04-06T07:00:57;30.73;;;15.75;;
18997;SDS011;9632;51.018;4.284;2023-04-06T07:03:23;29.13;;;15.70;;
18997;SDS011;9632;51.018;4.284;2023-04-06T07:05:49;30.52;;;15.43;;
18997;SDS011;9632;51.018;4.284;2023-04-06T07:08:19;32.85;;;15.57;;
18997;SDS011;9632;51.018;4.284;2023-04-06T07:10:50;30.60;;;15.38;;
18997;SDS011;9632;51.018;4.284;2023-04-06T07:13:18;31.98;;;16.15;;
18997;SDS011;9632;51.018;4.284;2023-04-06T07:15:47;31.42;;;15.48;;
18997;SDS011;9632;51.018;4.284;2023-04-06T07:18:15;30.40;;;15.43;;
18997;SDS011;9632;51.018;4.284;2023-04-06T07:20:41;28.10;;;14.55;;
18997;SDS011;9632;51.018;4.284;2023-04-06T07:23:07;30.17;;;15.15;;
18997;SDS011;9632;51.018;4.284;2023-04-06T07:25:33;29.88;;;16.05;;
18997;SDS011;9632;51.018;4.284;2023-04-06T07:27:58;30.95;;;15.82;;
18997;SDS011;9632;51.018;4.284;2023-04-06T07:30:24;30.83;;;14.88;;
18997;SDS011;9632;51.018;4.284;2023-04-06T07:32:52;29.38;;;14.63;;
18997;SDS011;9632;51.018;4.284;2023-04-06T07:35:20;26.40;;;12.95;;
18997;SDS011;9632;51.018;4.284;2023-04-06T07:37:46;28.88;;;12.73;;
18997;SDS011;9632;51.018;4.284;2023-04-06T07:40:12;23.73;;;13.13;;
18997;SDS011;9632;51.018;4.284;2023-04-06T07:42:37;23.98;;;12.38;;
18997;SDS011;9632;51.018;4.284;2023-04-06T07:45:03;27.25;;;13.05;;
18997;SDS011;9632;51.018;4.284;2023-04-06T07:47:29;27.05;;;13.07;;
18997;SDS011;9632;51.018;4.284;2023-04-06T07:49:55;26.65;;;12.95;;
18997;SDS011;9632;51.018;4.284;2023-04-06T07:52:23;21.95;;;10.93;;
18997;SDS011;9632;51.018;4.284;2023-04-06T07:54:49;22.50;;;11.43;;
18997;SDS011;9632;51.018;4.284;2023-04-06T07:57:14;19.30;;;10.82;;
18997;SDS011;9632;51.018;4.284;2023-04-06T07:59:40;24.05;;;10.57;;
18997;SDS011;9632;51.018;4.284;2023-04-06T08:02:06;20.65;;;10.82;;
18997;SDS011;9632;51.018;4.284;2023-04-06T08:04:32;26.20;;;10.90;;
18997;SDS011;9632;51.018;4.284;2023-04-06T08:06:58;24.10;;;10.93;;
18997;SDS011;9632;51.018;4.284;2023-04-06T08:09:23;22.73;;;10.40;;
18997;SDS011;9632;51.018;4.284;2023-04-06T08:11:49;18.73;;;9.57;;
18997;SDS011;9632;51.018;4.284;2023-04-06T08:14:15;22.13;;;9.25;;
18997;SDS011;9632;51.018;4.284;2023-04-06T08:16:41;24.10;;;10.30;;
18997;SDS011;9632;51.018;4.284;2023-04-06T08:19:07;35.67;;;15.25;;
18997;SDS011;9632;51.018;4.284;2023-04-06T08:21:34;23.27;;;10.55;;
18997;SDS011;9632;51.018;4.284;2023-04-06T08:24:01;18.15;;;9.02;;
18997;SDS011;9632;51.018;4.284;2023-04-06T08:26:27;16.98;;;8.57;;
18997;SDS011;9632;51.018;4.284;2023-04-06T08:28:53;18.30;;;8.20;;
18997;SDS011;9632;51.018;4.284;2023-04-06T08:31:19;17.75;;;7.50;;
18997;SDS011;9632;51.018;4.284;2023-04-06T08:33:44;15.13;;;7.78;;
18997;SDS011;9632;51.018;4.284;2023-04-06T08:36:14;14.43;;;7.03;;
18997;SDS011;9632;51.018;4.284;2023-04-06T08:38:40;13.90;;;6.45;;
18997;SDS011;9632;51.018;4.284;2023-04-06T08:41:08;15.00;;;7.07;;
18997;SDS011;9632;51.018;4.284;2023-04-06T08:43:57;18.08;;;7.47;;
18997;SDS011;9632;51.018;4.284;2023-04-06T08:46:25;12.10;;;6.85;;
18997;SDS011;9632;51.018;4.284;2023-04-06T08:48:58;16.95;;;7.60;;
18997;SDS011;9632;51.018;4.284;2023-04-06T08:51:28;16.08;;;7.75;;
18997;SDS011;9632;51.018;4.284;2023-04-06T08:53:58;15.90;;;7.90;;
18997;SDS011;9632;51.018;4.284;2023-04-06T08:56:25;15.00;;;7.45;;
18997;SDS011;9632;51.018;4.284;2023-04-06T08:58:52;23.75;;;9.23;;
18997;SDS011;9632;51.018;4.284;2023-04-06T09:01:26;17.15;;;7.70;;
18997;SDS011;9632;51.018;4.284;2023-04-06T09:03:55;30.83;;;10.75;;
18997;SDS011;9632;51.018;4.284;2023-04-06T09:06:22;25.90;;;9.38;;
18997;SDS011;9632;51.018;4.284;2023-04-06T09:08:49;20.58;;;9.30;;
18997;SDS011;9632;51.018;4.284;2023-04-06T09:11:15;16.50;;;8.75;;
18997;SDS011;9632;51.018;4.284;2023-04-06T09:13:50;19.85;;;8.05;;
18997;SDS011;9632;51.018;4.284;2023-04-06T09:16:18;14.35;;;7.43;;
18997;SDS011;9632;51.018;4.284;2023-04-06T09:18:44;19.25;;;8.13;;
18997;SDS011;9632;51.018;4.284;2023-04-06T09:21:10;14.90;;;6.95;;
18997;SDS011;9632;51.018;4.284;2023-04-06T09:23:36;20.23;;;8.15;;
18997;SDS011;9632;51.018;4.284;2023-04-06T09:26:10;14.75;;;7.13;;
18997;SDS011;9632;51.018;4.284;2023-04-06T09:28:44;13.25;;;7.28;;
18997;SDS011;9632;51.018;4.284;2023-04-06T09:31:10;14.05;;;7.55;;
18997;SDS011;9632;51.018;4.284;2023-04-06T09:33:38;21.98;;;9.82;;
18997;SDS011;9632;51.018;4.284;2023-04-06T09:36:06;26.23;;;12.20;;
18997;SDS011;9632;51.018;4.284;2023-04-06T09:38:32;22.17;;;10.02;;
18997;SDS011;9632;51.018;4.284;2023-04-06T09:40:57;18.83;;;8.90;;
18997;SDS011;9632;51.018;4.284;2023-04-06T09:43:26;23.30;;;10.43;;
18997;SDS011;9632;51.018;4.284;2023-04-06T09:45:53;27.33;;;10.50;;
18997;SDS011;9632;51.018;4.284;2023-04-06T09:48:20;26.95;;;10.73;;
18997;SDS011;9632;51.018;4.284;2023-04-06T09:50:49;32.83;;;12.23;;
18997;SDS011;9632;51.018;4.284;2023-04-06T09:53:19;26.40;;;10.20;;
18997;SDS011;9632;51.018;4.284;2023-04-06T09:55:46;37.03;;;12.40;;
18997;SDS011;9632;51.018;4.284;2023-04-06T09:58:16;32.35;;;12.25;;
18997;SDS011;9632;51.018;4.284;2023-04-06T10:00:52;28.58;;;11.63;;
18997;SDS011;9632;51.018;4.284;2023-04-06T10:06:21;18.63;;;8.73;;
18997;SDS011;9632;51.018;4.284;2023-04-06T10:08:50;20.80;;;8.70;;
18997;SDS011;9632;51.018;4.284;2023-04-06T10:11:19;21.80;;;9.98;;
18997;SDS011;9632;51.018;4.284;2023-04-06T10:13:46;27.52;;;10.00;;
18997;SDS011;9632;51.018;4.284;2023-04-06T10:16:14;17.27;;;8.35;;
18997;SDS011;9632;51.018;4.284;2023-04-06T10:18:40;17.17;;;8.20;;
18997;SDS011;9632;51.018;4.284;2023-04-06T10:21:11;19.67;;;8.52;;
18997;SDS011;9632;51.018;4.284;2023-04-06T10:23:47;16.98;;;8.13;;
18997;SDS011;9632;51.018;4.284;2023-04-06T10:26:15;20.70;;;8.75;;
18997;SDS011;9632;51.018;4.284;2023-04-06T10:28:42;16.75;;;8.57;;
18997;SDS011;9632;51.018;4.284;2023-04-06T10:31:10;18.95;;;8.90;;
18997;SDS011;9632;51.018;4.284;2023-04-06T10:33:36;16.38;;;8.63;;
18997;SDS011;9632;51.018;4.284;2023-04-06T10:36:14;17.30;;;9.00;;
18997;SDS011;9632;51.018;4.284;2023-04-06T10:38:53;16.83;;;8.93;;
18997;SDS011;9632;51.018;4.284;2023-04-06T10:41:23;17.30;;;8.32;;
18997;SDS011;9632;51.018;4.284;2023-04-06T10:43:56;18.65;;;9.48;;
18997;SDS011;9632;51.018;4.284;2023-04-06T10:46:27;15.82;;;8.63;;
18997;SDS011;9632;51.018;4.284;2023-04-06T10:48:54;17.02;;;8.40;;
18997;SDS011;9632;51.018;4.284;2023-04-06T10:51:24;16.35;;;8.68;;
18997;SDS011;9632;51.018;4.284;2023-04-06T10:53:54;17.17;;;8.70;;
18997;SDS011;9632;51.018;4.284;2023-04-06T10:56:22;19.27;;;9.18;;
18997;SDS011;9632;51.018;4.284;2023-04-06T10:58:54;18.02;;;9.20;;
18997;SDS011;9632;51.018;4.284;2023-04-06T11:01:23;17.65;;;9.55;;
18997;SDS011;9632;51.018;4.284;2023-04-06T11:03:55;16.50;;;8.88;;
18997;SDS011;9632;51.018;4.284;2023-04-06T11:06:25;16.70;;;8.63;;
18997;SDS011;9632;51.018;4.284;2023-04-06T11:08:54;18.90;;;9.35;;
18997;SDS011;9632;51.018;4.284;2023-04-06T11:11:21;18.45;;;9.50;;
18997;SDS011;9632;51.018;4.284;2023-04-06T11:13:51;17.13;;;9.63;;
18997;SDS011;9632;51.018;4.284;2023-04-06T11:16:22;20.98;;;10.35;;
18997;SDS011;9632;51.018;4.284;2023-04-06T11:18:49;18.42;;;9.68;;
18997;SDS011;9632;51.018;4.284;2023-04-06T11:21:31;18.13;;;9.82;;
18997;SDS011;9632;51.018;4.284;2023-04-06T11:24:19;19.92;;;10.25;;
18997;SDS011;9632;51.018;4.284;2023-04-06T11:26:53;18.27;;;9.70;;
18997;SDS011;9632;51.018;4.284;2023-04-06T11:29:21;18.65;;;10.20;;
18997;SDS011;9632;51.018;4.284;2023-04-06T11:31:50;20.95;;;11.18;;
18997;SDS011;9632;51.018;4.284;2023-04-06T11:34:23;19.40;;;11.27;;
18997;SDS011;9632;51.018;4.284;2023-04-06T11:37:00;22.65;;;12.25;;
18997;SDS011;9632;51.018;4.284;2023-04-06T11:39:28;24.33;;;12.18;;
18997;SDS011;9632;51.018;4.284;2023-04-06T11:41:56;23.42;;;12.80;;
18997;SDS011;9632;51.018;4.284;2023-04-06T11:44:34;24.73;;;13.02;;
18997;SDS011;9632;51.018;4.284;2023-04-06T11:47:01;25.05;;;13.15;;
18997;SDS011;9632;51.018;4.284;2023-04-06T11:49:29;25.83;;;12.02;;
18997;SDS011;9632;51.018;4.284;2023-04-06T11:51:55;22.38;;;12.02;;
18997;SDS011;9632;51.018;4.284;2023-04-06T11:54:35;22.05;;;11.52;;
18997;SDS011;9632;51.018;4.284;2023-04-06T11:57:05;22.02;;;11.80;;
18997;SDS011;9632;51.018;4.284;2023-04-06T11:59:33;21.35;;;11.95;;
18997;SDS011;9632;51.018;4.284;2023-04-06T12:02:03;23.13;;;12.30;;
18997;SDS011;9632;51.018;4.284;2023-04-06T12:04:29;25.95;;;13.32;;
18997;SDS011;9632;51.018;4.284;2023-04-06T12:06:56;21.42;;;12.15;;
18997;SDS011;9632;51.018;4.284;2023-04-06T12:09:22;20.30;;;11.73;;
18997;SDS011;9632;51.018;4.284;2023-04-06T12:11:48;26.20;;;12.57;;
18997;SDS011;9632;51.018;4.284;2023-04-06T12:14:14;24.27;;;12.50;;
18997;SDS011;9632;51.018;4.284;2023-04-06T12:16:40;23.50;;;12.98;;
18997;SDS011;9632;51.018;4.284;2023-04-06T12:19:06;25.20;;;12.82;;
18997;SDS011;9632;51.018;4.284;2023-04-06T12:21:31;22.35;;;12.15;;
18997;SDS011;9632;51.018;4.284;2023-04-06T12:23:59;24.52;;;12.68;;
18997;SDS011;9632;51.018;4.284;2023-04-06T12:26:25;23.80;;;12.57;;
18997;SDS011;9632;51.018;4.284;2023-04-06T12:28:53;18.75;;;11.02;;
18997;SDS011;9632;51.018;4.284;2023-04-06T12:31:22;21.58;;;11.80;;
18997;SDS011;9632;51.018;4.284;2023-04-06T12:33:50;18.50;;;11.10;;
18997;SDS011;9632;51.018;4.284;2023-04-06T12:36:16;17.75;;;10.18;;
18997;SDS011;9632;51.018;4.284;2023-04-06T12:38:45;19.10;;;9.80;;
18997;SDS011;9632;51.018;4.284;2023-04-06T12:41:12;17.88;;;10.27;;
18997;SDS011;9632;51.018;4.284;2023-04-06T12:43:42;19.70;;;10.27;;
18997;SDS011;9632;51.018;4.284;2023-04-06T12:46:08;15.93;;;9.45;;
18997;SDS011;9632;51.018;4.284;2023-04-06T12:48:35;17.38;;;9.52;;
18997;SDS011;9632;51.018;4.284;2023-04-06T12:51:02;15.93;;;9.13;;
18997;SDS011;9632;51.018;4.284;2023-04-06T12:53:29;15.00;;;9.27;;
18997;SDS011;9632;51.018;4.284;2023-04-06T12:55:56;20.23;;;11.02;;
18997;SDS011;9632;51.018;4.284;2023-04-06T12:58:22;18.40;;;11.05;;
18997;SDS011;9632;51.018;4.284;2023-04-06T13:00:49;17.10;;;10.23;;
18997;SDS011;9632;51.018;4.284;2023-04-06T13:03:16;16.13;;;10.00;;
18997;SDS011;9632;51.018;4.284;2023-04-06T13:05:46;20.80;;;11.15;;
18997;SDS011;9632;51.018;4.284;2023-04-06T13:08:14;16.80;;;10.07;;
18997;SDS011;9632;51.018;4.284;2023-04-06T13:10:50;14.77;;;9.65;;
18997;SDS011;9632;51.018;4.284;2023-04-06T13:13:24;18.60;;;11.07;;
18997;SDS011;9632;51.018;4.284;2023-04-06T13:15:52;21.48;;;11.20;;
18997;SDS011;9632;51.018;4.284;2023-04-06T13:18:27;17.27;;;11.48;;
18997;SDS011;9632;51.018;4.284;2023-04-06T13:20:57;20.27;;;11.85;;
18997;SDS011;9632;51.018;4.284;2023-04-06T13:23:27;20.20;;;11.38;;
18997;SDS011;9632;51.018;4.284;2023-04-06T13:26:00;19.70;;;11.52;;
18997;SDS011;9632;51.018;4.284;2023-04-06T13:28:35;19.25;;;11.43;;
18997;SDS011;9632;51.018;4.284;2023-04-06T13:31:05;21.40;;;12.18;;
18997;SDS011;9632;51.018;4.284;2023-04-06T13:33:32;19.45;;;11.85;;
18997;SDS011;9632;51.018;4.284;2023-04-06T13:35:59;22.30;;;12.30;;
18997;SDS011;9632;51.018;4.284;2023-04-06T13:38:25;21.70;;;12.27;;
18997;SDS011;9632;51.018;4.284;2023-04-06T13:40:50;20.83;;;11.85;;
18997;SDS011;9632;51.018;4.284;2023-04-06T13:43:17;25.90;;;13.45;;
18997;SDS011;9632;51.018;4.284;2023-04-06T13:45:49;22.85;;;13.07;;
18997;SDS011;9632;51.018;4.284;2023-04-06T13:48:16;23.42;;;13.10;;
18997;SDS011;9632;51.018;4.284;2023-04-06T13:50:42;24.70;;;12.95;;
18997;SDS011;9632;51.018;4.284;2023-04-06T13:53:08;26.05;;;13.15;;
18997;SDS011;9632;51.018;4.284;2023-04-06T13:55:34;22.58;;;13.73;;
18997;SDS011;9632;51.018;4.284;2023-04-06T13:58:00;24.50;;;14.30;;
18997;SDS011;9632;51.018;4.284;2023-04-06T14:00:25;27.33;;;14.80;;
18997;SDS011;9632;51.018;4.284;2023-04-06T14:02:53;27.40;;;15.82;;
18997;SDS011;9632;51.018;4.284;2023-04-06T14:05:19;36.38;;;19.63;;
18997;SDS011;9632;51.018;4.284;2023-04-06T14:07:45;26.15;;;16.05;;
18997;SDS011;9632;51.018;4.284;2023-04-06T14:10:11;26.17;;;14.77;;
18997;SDS011;9632;51.018;4.284;2023-04-06T14:12:42;26.77;;;15.15;;
18997;SDS011;9632;51.018;4.284;2023-04-06T14:15:10;24.30;;;14.43;;
18997;SDS011;9632;51.018;4.284;2023-04-06T14:17:37;26.27;;;15.55;;
18997;SDS011;9632;51.018;4.284;2023-04-06T14:20:03;24.60;;;14.35;;
18997;SDS011;9632;51.018;4.284;2023-04-06T14:22:30;23.38;;;13.70;;
18997;SDS011;9632;51.018;4.284;2023-04-06T14:24:56;22.27;;;13.75;;
18997;SDS011;9632;51.018;4.284;2023-04-06T14:27:22;24.10;;;12.63;;
18997;SDS011;9632;51.018;4.284;2023-04-06T14:29:48;26.48;;;14.95;;
18997;SDS011;9632;51.018;4.284;2023-04-06T14:32:14;22.05;;;12.80;;
18997;SDS011;9632;51.018;4.284;2023-04-06T14:34:41;19.60;;;12.43;;
18997;SDS011;9632;51.018;4.284;2023-04-06T14:37:06;24.25;;;13.85;;
18997;SDS011;9632;51.018;4.284;2023-04-06T14:39:32;24.10;;;13.50;;
18997;SDS011;9632;51.018;4.284;2023-04-06T14:41:58;23.98;;;13.85;;
18997;SDS011;9632;51.018;4.284;2023-04-06T14:44:23;25.63;;;14.38;;
18997;SDS011;9632;51.018;4.284;2023-04-06T14:46:49;28.55;;;15.25;;
18997;SDS011;9632;51.018;4.284;2023-04-06T14:49:15;33.53;;;17.63;;